Asbury Park, New Jersey
Current Conditions -  °F | °C
As of 5:35 AM on Wednesday 22 Oct 2014 (Local Time) from KBLM Reporting Station
Thunderstorm Thunderstorm  
Wind Chill: 55°   Ceiling: 5500
Heat Index: 55°   Visibility: 10mi
Dew Point: 48°   Wind: 13mph
Humidity: 77%   Direction: 360°N
Pressure: 29.85"   Gusts: 23mph
Location:  40.22°N, 74.01°W
Report Text: KBLM 220935Z AUTO 36011G20KT 10SM VCTS FEW036 SCT048 BKN055 13/09 A2985 RMK AO1 LTG DSNT ALQDS TSB07 P0015
Loading
Personal Weather Stations






























Interactive Weather Map
Tropical Storm Tracking
New forecast layout! Learn more

10-Day Weather Forecast

Advertisements
Track Severe Weather on mobile